Time;durP1;ratioP1;P1;durP2;ratioP2;P2;SDS_P1;SDS_P2;PMS_P1;PMS_P2;Temp;Humidity;BMP_temperature;BMP_pressure;BME280_temperature;BME280_humidity;BME280_pressure;Samples;Min_cycle;Max_cycle;Signal;HPM_P1;HPM_P2
2022/02/12 00:02:15;;;;;;;8.88;3.45;;;2.70;99.90;;;;;;5149703;27;20657;-47
2022/02/12 00:04:42;;;;;;;9.13;3.42;;;2.70;99.90;;;;;;5149912;27;20199;-45
2022/02/12 00:07:09;;;;;;;11.20;3.75;;;2.70;99.90;;;;;;5149760;27;20181;-45
2022/02/12 00:09:37;;;;;;;5.97;3.13;;;2.70;99.90;;;;;;5149578;27;20231;-44
2022/02/12 00:12:04;;;;;;;9.68;3.78;;;2.70;99.90;;;;;;5148623;27;20219;-45
2022/02/12 00:14:31;;;;;;;9.90;4.20;;;2.70;99.90;;;;;;5149822;27;20676;-44
2022/02/12 00:16:57;;;;;;;10.15;3.72;;;2.60;99.90;;;;;;5149567;27;20712;-46
2022/02/12 00:19:25;;;;;;;10.70;3.40;;;2.60;99.90;;;;;;5149254;27;20576;-44
2022/02/12 00:21:51;;;;;;;12.07;4.25;;;2.60;99.90;;;;;;5150030;27;20280;-43
2022/02/12 00:24:18;;;;;;;12.63;4.32;;;2.60;99.90;;;;;;5149797;27;20201;-45
2022/02/12 00:26:46;;;;;;;7.13;4.28;;;2.60;99.90;;;;;;5148020;27;20659;-44
2022/02/12 00:29:13;;;;;;;7.47;4.35;;;2.60;99.90;;;;;;5115289;28;20221;-44
2022/02/12 00:31:40;;;;;;;5.78;4.00;;;2.60;99.90;;;;;;5115316;28;20528;-44
2022/02/12 00:34:06;;;;;;;11.77;4.05;;;2.60;99.90;;;;;;5114877;28;20201;-44
2022/02/12 00:36:33;;;;;;;7.80;4.13;;;2.50;99.90;;;;;;5115179;28;20214;-45
2022/02/12 00:38:59;;;;;;;6.40;3.67;;;2.50;99.90;;;;;;5114704;28;20222;-42
2022/02/12 00:41:26;;;;;;;8.98;3.55;;;2.50;99.90;;;;;;5114762;28;20198;-45
2022/02/12 00:43:54;;;;;;;6.43;3.53;;;2.50;99.90;;;;;;5114798;28;20195;-43
2022/02/12 00:46:21;;;;;;;8.32;3.90;;;2.50;99.90;;;;;;5131189;27;20205;-44
2022/02/12 00:48:47;;;;;;;9.48;3.97;;;2.50;99.90;;;;;;5134801;27;20220;-44
2022/02/12 00:51:14;;;;;;;10.73;5.13;;;2.50;99.90;;;;;;5135412;27;20194;-43
2022/02/12 00:53:41;;;;;;;7.38;3.63;;;2.50;99.90;;;;;;5135433;27;20198;-44
2022/02/12 00:56:08;;;;;;;13.65;5.30;;;2.50;99.90;;;;;;5135445;27;20197;-43
2022/02/12 00:58:35;;;;;;;8.10;4.00;;;2.50;99.90;;;;;;5134644;27;20624;-44
2022/02/12 01:01:03;;;;;;;6.57;3.15;;;2.50;99.90;;;;;;5134838;27;20200;-44
2022/02/12 01:03:30;;;;;;;11.48;4.25;;;2.40;99.90;;;;;;5135408;27;20661;-43
2022/02/12 01:05:58;;;;;;;8.95;4.50;;;2.50;99.90;;;;;;5134030;27;20227;-43
2022/02/12 01:08:24;;;;;;;12.98;4.13;;;2.40;99.90;;;;;;5134837;27;20266;-44
2022/02/12 01:10:51;;;;;;;14.07;4.97;;;2.40;99.90;;;;;;5135167;27;20198;-47
2022/02/12 01:13:18;;;;;;;12.80;3.30;;;2.40;99.90;;;;;;5134921;27;20204;-44
2022/02/12 01:15:45;;;;;;;7.47;4.15;;;2.40;99.90;;;;;;5134616;27;20193;-46
2022/02/12 01:18:13;;;;;;;4.97;3.10;;;2.40;99.90;;;;;;5134547;27;20221;-45
2022/02/12 01:20:40;;;;;;;9.50;3.30;;;2.40;99.90;;;;;;5134617;27;20208;-46
2022/02/12 01:23:07;;;;;;;9.70;3.17;;;2.40;99.90;;;;;;5134847;27;20242;-43
2022/02/12 01:25:33;;;;;;;8.43;3.00;;;2.40;99.90;;;;;;5134847;27;20197;-44
2022/02/12 01:28:00;;;;;;;9.20;3.50;;;2.40;99.90;;;;;;5121886;27;20198;-45
2022/02/12 01:30:27;;;;;;;7.85;3.75;;;2.40;99.90;;;;;;5114025;28;20198;-43
2022/02/12 01:32:54;;;;;;;12.02;4.03;;;2.40;99.90;;;;;;5114278;28;20194;-44
2022/02/12 01:35:24;;;;;;;5.25;3.08;;;2.40;99.90;;;;;;5113789;28;20198;-44
2022/02/12 01:37:52;;;;;;;5.78;3.70;;;2.40;99.90;;;;;;5113571;28;20222;-46
2022/02/12 01:40:21;;;;;;;7.63;3.65;;;2.40;99.90;;;;;;5112411;28;20509;-42
2022/02/12 01:42:48;;;;;;;12.50;4.45;;;2.40;99.90;;;;;;5113555;28;20697;-47
2022/02/12 01:45:14;;;;;;;7.07;3.65;;;2.40;99.90;;;;;;5121247;27;20666;-44
2022/02/12 01:47:41;;;;;;;16.55;4.30;;;2.40;99.90;;;;;;5133803;27;20557;-43
2022/02/12 01:50:10;;;;;;;12.38;4.15;;;2.40;99.90;;;;;;5133635;27;20226;-43
2022/02/12 01:52:40;;;;;;;15.52;3.80;;;2.40;99.90;;;;;;5133996;27;20562;-43
2022/02/12 01:55:08;;;;;;;6.88;3.35;;;2.40;99.90;;;;;;5134119;27;20197;-43
2022/02/12 01:57:34;;;;;;;9.85;3.95;;;2.40;99.90;;;;;;5133835;27;20221;-44
2022/02/12 02:00:01;;;;;;;7.47;3.63;;;2.30;99.90;;;;;;5133553;27;20539;-44
2022/02/12 02:02:28;;;;;;;9.98;3.67;;;2.40;99.90;;;;;;5132458;27;20661;-43
2022/02/12 02:04:54;;;;;;;8.38;3.70;;;2.40;99.90;;;;;;5133787;27;20610;-45
2022/02/12 02:07:21;;;;;;;7.68;4.70;;;2.40;99.90;;;;;;5133834;27;20189;-44
2022/02/12 02:09:51;;;;;;;8.52;4.28;;;2.30;99.90;;;;;;5133226;27;20572;-44
2022/02/12 02:12:18;;;;;;;10.45;3.90;;;2.30;99.90;;;;;;5133740;27;20193;-43
2022/02/12 02:14:45;;;;;;;10.88;4.38;;;2.30;99.90;;;;;;5133728;27;20232;-44
2022/02/12 02:17:12;;;;;;;6.40;3.80;;;2.30;99.90;;;;;;5133547;27;20773;-43
2022/02/12 02:19:39;;;;;;;10.77;3.78;;;2.30;99.90;;;;;;5133146;27;20625;-44
2022/02/12 02:22:06;;;;;;;9.65;4.75;;;2.20;99.90;;;;;;5133576;27;20253;-45
2022/02/12 02:24:34;;;;;;;11.10;4.63;;;2.30;99.90;;;;;;5133202;27;20201;-46
2022/02/12 02:27:06;;;;;;;7.03;3.35;;;2.30;99.90;;;;;;5129277;27;20200;-46
2022/02/12 02:29:33;;;;;;;8.40;4.22;;;2.30;99.90;;;;;;5112460;28;20217;-46
2022/02/12 02:32:00;;;;;;;10.15;4.28;;;2.30;99.90;;;;;;5112656;28;20201;-44
2022/02/12 02:34:26;;;;;;;5.20;3.85;;;2.30;99.90;;;;;;5112842;28;20190;-43
2022/02/12 02:36:53;;;;;;;15.82;4.32;;;2.20;99.90;;;;;;5112379;28;20201;-43
2022/02/12 02:39:20;;;;;;;9.65;5.90;;;2.30;99.90;;;;;;5112370;28;20225;-43
2022/02/12 02:41:48;;;;;;;10.48;5.03;;;2.20;99.90;;;;;;5112706;28;20255;-44
2022/02/12 02:44:15;;;;;;;7.28;4.90;;;2.20;99.90;;;;;;5112512;28;20190;-46
2022/02/12 02:46:42;;;;;;;9.23;3.60;;;2.20;99.90;;;;;;5132220;27;20203;-43
2022/02/12 02:49:09;;;;;;;15.48;4.25;;;2.20;99.90;;;;;;5132432;27;20228;-43
2022/02/12 02:57:11;;;;;;;8.55;4.13;;;2.20;99.90;;;;;;5074569;27;20447;-44
2022/02/12 02:59:37;;;;;;;8.43;4.07;;;2.20;99.90;;;;;;5133048;27;20217;-44
2022/02/12 03:02:04;;;;;;;19.25;4.50;;;2.20;99.90;;;;;;5133216;27;20196;-46
2022/02/12 03:04:31;;;;;;;9.32;3.58;;;2.20;99.90;;;;;;5133075;27;20201;-45
2022/02/12 03:06:58;;;;;;;8.98;4.10;;;2.20;99.90;;;;;;5132860;27;20261;-45
2022/02/12 03:09:26;;;;;;;12.00;3.90;;;2.10;99.90;;;;;;5132488;27;20814;-44
2022/02/12 03:11:53;;;;;;;9.07;4.20;;;2.20;99.90;;;;;;5132897;27;20205;-43
2022/02/12 03:14:21;;;;;;;8.32;4.05;;;2.20;99.90;;;;;;5132650;27;20193;-46
2022/02/12 03:16:48;;;;;;;12.68;4.20;;;2.20;99.90;;;;;;5132694;27;20208;-43
2022/02/12 03:19:14;;;;;;;16.27;5.20;;;2.20;99.90;;;;;;5132207;27;20221;-45
2022/02/12 03:21:41;;;;;;;14.95;4.47;;;2.20;99.90;;;;;;5132735;27;20208;-43
2022/02/12 03:24:07;;;;;;;7.80;3.80;;;2.20;99.90;;;;;;5132545;27;20189;-44
2022/02/12 03:26:34;;;;;;;9.55;4.20;;;2.10;99.90;;;;;;5131076;27;20297;-43
2022/02/12 03:29:01;;;;;;;13.40;4.28;;;2.20;99.90;;;;;;5111606;28;20218;-46
2022/02/12 03:31:28;;;;;;;9.18;3.90;;;2.10;99.90;;;;;;5112030;28;20205;-44
2022/02/12 03:33:56;;;;;;;10.18;3.60;;;2.10;99.90;;;;;;5112022;28;20202;-45
2022/02/12 03:36:22;;;;;;;7.50;3.60;;;2.10;99.90;;;;;;5112209;28;20202;-45
2022/02/12 03:38:49;;;;;;;6.22;3.00;;;2.10;99.90;;;;;;5111526;28;20253;-44
2022/02/12 03:41:16;;;;;;;7.45;3.70;;;2.10;99.90;;;;;;5111872;28;20193;-45
2022/02/12 03:43:43;;;;;;;14.00;5.50;;;2.10;99.90;;;;;;5111892;28;20194;-47
2022/02/12 03:46:09;;;;;;;9.38;4.32;;;2.10;99.90;;;;;;5127127;28;20205;-43
2022/02/12 03:48:37;;;;;;;12.45;4.93;;;2.10;99.90;;;;;;5132339;27;20220;-44
2022/02/12 03:51:04;;;;;;;7.32;4.10;;;1.90;99.90;;;;;;5132337;27;20201;-44
2022/02/12 03:53:31;;;;;;;10.48;4.82;;;2.10;99.90;;;;;;5132427;27;20561;-42
2022/02/12 03:55:57;;;;;;;9.48;3.50;;;2.10;99.90;;;;;;5132400;27;20190;-44
2022/02/12 03:58:24;;;;;;;6.47;3.85;;;2.10;99.90;;;;;;5131764;27;20225;-43
2022/02/12 04:00:51;;;;;;;6.38;3.80;;;2.00;99.90;;;;;;5131076;28;20209;-44
2022/02/12 04:03:18;;;;;;;12.63;4.53;;;1.90;99.90;;;;;;5133471;27;20665;-45
2022/02/12 04:05:46;;;;;;;6.50;3.83;;;2.00;99.90;;;;;;5136225;27;20194;-43
2022/02/12 04:08:17;;;;;;;12.10;3.92;;;2.00;99.90;;;;;;5136059;27;20602;-43
2022/02/12 04:10:45;;;;;;;13.40;3.80;;;2.00;99.90;;;;;;5135438;27;20250;-42
2022/02/12 04:13:11;;;;;;;12.38;3.97;;;2.00;99.90;;;;;;5135934;27;20814;-44
2022/02/12 04:15:38;;;;;;;8.57;3.67;;;2.00;99.90;;;;;;5136034;27;20197;-44
2022/02/12 04:18:04;;;;;;;9.57;4.07;;;2.00;99.90;;;;;;5134344;27;20716;-43
2022/02/12 04:20:31;;;;;;;14.95;4.80;;;2.00;99.90;;;;;;5135655;27;20291;-43
2022/02/12 04:23:01;;;;;;;11.93;4.30;;;1.90;99.90;;;;;;5135577;27;20657;-46
2022/02/12 04:25:28;;;;;;;7.70;3.45;;;1.90;99.90;;;;;;5135852;27;20296;-45
2022/02/12 04:27:57;;;;;;;11.10;4.45;;;1.90;99.90;;;;;;5123811;27;20201;-44
2022/02/12 04:30:23;;;;;;;11.98;4.18;;;1.90;99.90;;;;;;5114914;28;20678;-44
2022/02/12 04:32:50;;;;;;;12.40;4.13;;;1.90;99.90;;;;;;5115136;27;20193;-46
2022/02/12 04:35:16;;;;;;;9.15;4.05;;;1.90;99.90;;;;;;5114973;28;20666;-43
2022/02/12 04:37:43;;;;;;;12.98;4.00;;;1.90;99.90;;;;;;5114805;28;20686;-44
2022/02/12 04:40:13;;;;;;;10.63;5.30;;;1.80;99.90;;;;;;5114724;27;20218;-46
2022/02/12 04:42:40;;;;;;;8.23;3.80;;;1.80;99.90;;;;;;5115149;28;20229;-42
2022/02/12 04:45:08;;;;;;;8.30;3.85;;;1.80;99.90;;;;;;5121044;27;20205;-45
2022/02/12 04:47:37;;;;;;;9.55;3.95;;;1.80;99.90;;;;;;5135659;27;20193;-45
2022/02/12 04:50:05;;;;;;;9.13;4.25;;;1.80;99.90;;;;;;5135031;27;20493;-44
2022/02/12 04:52:32;;;;;;;12.18;4.57;;;1.80;99.90;;;;;;5135197;27;20201;-44
2022/02/12 04:54:59;;;;;;;13.10;4.03;;;1.60;99.90;;;;;;5135416;27;20217;-46
2022/02/12 04:57:27;;;;;;;10.23;4.40;;;1.70;99.90;;;;;;5135060;27;20200;-43
2022/02/12 04:59:53;;;;;;;10.80;4.45;;;1.70;99.90;;;;;;5134793;27;20218;-43
2022/02/12 05:02:20;;;;;;;12.02;5.05;;;1.70;99.90;;;;;;5135193;27;20208;-46
2022/02/12 05:04:47;;;;;;;10.13;4.30;;;1.70;99.90;;;;;;5135012;27;20197;-44
2022/02/12 05:07:14;;;;;;;11.60;5.03;;;1.70;99.90;;;;;;5134962;27;20193;-43
2022/02/12 05:09:41;;;;;;;9.07;4.45;;;1.70;99.90;;;;;;5134507;27;20209;-43
2022/02/12 05:12:09;;;;;;;11.98;4.95;;;1.70;99.90;;;;;;5134840;27;20194;-46
2022/02/12 05:14:37;;;;;;;9.88;4.25;;;1.70;99.90;;;;;;5134647;27;20688;-45
2022/02/12 05:17:04;;;;;;;14.10;3.92;;;1.70;99.90;;;;;;5134587;27;20584;-43
2022/02/12 05:19:32;;;;;;;9.77;3.75;;;1.70;99.90;;;;;;5134287;27;20225;-47
2022/02/12 05:21:58;;;;;;;15.50;4.20;;;1.70;99.90;;;;;;5134701;27;20247;-43
2022/02/12 05:24:25;;;;;;;7.40;3.92;;;1.70;99.90;;;;;;5134617;27;20227;-43
2022/02/12 05:26:52;;;;;;;10.38;5.00;;;1.70;99.90;;;;;;5131998;27;20201;-43
2022/02/12 05:29:19;;;;;;;12.57;5.07;;;1.70;99.90;;;;;;5111125;22;20411;-48
2022/02/12 05:31:47;;;;;;;12.40;4.47;;;1.70;99.90;;;;;;5053138;28;20227;-48
2022/02/12 05:34:14;;;;;;;11.27;5.03;;;1.60;99.90;;;;;;5053303;28;20204;-49
2022/02/12 05:36:40;;;;;;;7.63;3.75;;;1.70;99.90;;;;;;5052989;28;20726;-49
2022/02/12 05:39:09;;;;;;;13.35;5.80;;;1.70;99.90;;;;;;5052690;28;20231;-48
2022/02/12 05:41:36;;;;;;;15.50;4.40;;;1.60;99.90;;;;;;5053083;28;20204;-49
2022/02/12 05:44:03;;;;;;;14.05;5.05;;;1.60;99.90;;;;;;5053052;28;20202;-49
2022/02/12 05:46:29;;;;;;;12.65;5.47;;;1.60;99.90;;;;;;5052778;28;20215;-49
2022/02/12 05:48:57;;;;;;;9.02;4.70;;;1.60;99.90;;;;;;5052355;28;20218;-50
2022/02/12 05:51:24;;;;;;;12.55;4.95;;;1.60;99.90;;;;;;5052884;28;20695;-48
2022/02/12 05:53:51;;;;;;;12.88;4.75;;;1.60;99.90;;;;;;5052979;28;20200;-49
2022/02/12 05:56:18;;;;;;;9.07;4.63;;;1.60;99.90;;;;;;5052536;28;20569;-49
2022/02/12 05:58:44;;;;;;;8.88;4.38;;;1.60;99.90;;;;;;5034124;28;20243;-49
2022/02/12 06:01:11;;;;;;;11.55;4.10;;;1.60;99.90;;;;;;5034762;28;20192;-49
2022/02/12 06:03:38;;;;;;;17.90;5.13;;;1.60;99.90;;;;;;5052509;28;20664;-48
2022/02/12 06:06:06;;;;;;;9.38;4.40;;;1.60;99.90;;;;;;5052360;28;20192;-49
2022/02/12 06:08:32;;;;;;;10.02;4.40;;;1.60;99.90;;;;;;5052032;28;20199;-49
2022/02/12 06:11:01;;;;;;;7.80;5.18;;;1.60;99.90;;;;;;5052523;28;20203;-49
2022/02/12 06:13:29;;;;;;;14.02;4.93;;;1.60;99.90;;;;;;5052290;28;20200;-48
2022/02/12 06:15:55;;;;;;;12.63;4.40;;;1.60;99.90;;;;;;5052668;28;20208;-49
2022/02/12 06:18:22;;;;;;;8.43;4.55;;;1.60;99.90;;;;;;5051982;28;20227;-49
2022/02/12 06:20:49;;;;;;;10.25;4.45;;;1.60;99.90;;;;;;5052037;28;20227;-48
2022/02/12 06:23:17;;;;;;;11.82;4.65;;;1.50;99.90;;;;;;5052250;28;20204;-48
2022/02/12 06:25:44;;;;;;;13.00;4.90;;;1.50;99.90;;;;;;5051569;28;20204;-49
2022/02/12 06:28:10;;;;;;;9.70;5.43;;;1.50;99.90;;;;;;5051669;28;20556;-49
2022/02/12 06:30:37;;;;;;;13.60;5.05;;;0.70;99.90;;;;;;5051440;28;20711;-50
2022/02/12 06:33:03;;;;;;;13.77;5.47;;;1.60;99.90;;;;;;5052256;28;20591;-49
2022/02/12 06:35:30;;;;;;;10.32;5.85;;;1.60;99.90;;;;;;5051826;28;20203;-48
2022/02/12 06:37:57;;;;;;;11.30;6.20;;;1.60;99.90;;;;;;5051904;28;20223;-48
2022/02/12 06:40:25;;;;;;;8.82;6.20;;;1.70;99.90;;;;;;5051369;28;20231;-49
2022/02/12 06:42:53;;;;;;;12.20;6.00;;;1.70;99.90;;;;;;5033702;28;20538;-49
2022/02/12 06:45:19;;;;;;;11.05;5.63;;;1.70;99.90;;;;;;5051843;28;20228;-51
2022/02/12 06:47:46;;;;;;;11.35;5.78;;;1.50;99.90;;;;;;5051716;28;20214;-48
2022/02/12 06:50:13;;;;;;;12.38;5.50;;;1.70;99.90;;;;;;5051187;28;20212;-48
2022/02/12 06:52:40;;;;;;;14.50;5.90;;;1.70;99.90;;;;;;5051723;28;20195;-48
2022/02/12 06:55:07;;;;;;;8.55;5.20;;;1.70;99.90;;;;;;5051407;28;20285;-49
2022/02/12 06:57:36;;;;;;;14.68;7.25;;;1.70;99.90;;;;;;5051562;28;20746;-49
2022/02/12 07:00:04;;;;;;;10.35;5.72;;;1.70;99.90;;;;;;5050924;28;20298;-49
2022/02/12 07:02:31;;;;;;;16.73;8.40;;;1.70;99.90;;;;;;5051571;28;20274;-49
2022/02/12 07:04:59;;;;;;;13.38;6.85;;;1.70;99.90;;;;;;5051307;28;20212;-49
2022/02/12 07:07:25;;;;;;;11.98;7.15;;;1.80;99.90;;;;;;5051361;28;20621;-49
2022/02/12 07:09:52;;;;;;;9.90;5.57;;;1.70;99.90;;;;;;5050757;28;20220;-50
2022/02/12 07:12:19;;;;;;;11.90;5.15;;;1.70;99.90;;;;;;5051313;28;20226;-48
2022/02/12 07:14:47;;;;;;;12.00;5.38;;;1.70;99.90;;;;;;5051195;28;20537;-49
2022/02/12 07:17:13;;;;;;;12.13;6.60;;;1.80;99.90;;;;;;5051094;28;20201;-49
2022/02/12 07:19:40;;;;;;;12.65;6.72;;;1.70;99.90;;;;;;5050688;28;20227;-48
2022/02/12 07:22:07;;;;;;;11.20;6.68;;;1.80;99.90;;;;;;5051051;28;20218;-48
2022/02/12 07:24:33;;;;;;;14.93;7.13;;;1.60;99.90;;;;;;5051119;28;20318;-48
2022/02/12 07:27:00;;;;;;;21.48;7.75;;;1.80;99.90;;;;;;5051232;28;20346;-48
2022/02/12 07:29:26;;;;;;;19.08;8.32;;;1.80;99.90;;;;;;5032777;28;20228;-50
2022/02/12 07:31:54;;;;;;;12.82;6.00;;;1.80;99.90;;;;;;5051290;28;20668;-49
2022/02/12 07:34:21;;;;;;;11.48;6.05;;;1.80;99.90;;;;;;5050971;28;20205;-49
2022/02/12 07:36:48;;;;;;;10.18;5.85;;;1.80;99.90;;;;;;5050984;28;20196;-48
2022/02/12 07:39:15;;;;;;;10.88;5.70;;;1.80;99.90;;;;;;5053423;28;20644;-49
2022/02/12 07:41:41;;;;;;;10.40;4.80;;;2.00;99.90;;;;;;5055314;28;20568;-48
2022/02/12 07:44:09;;;;;;;13.90;6.03;;;1.80;99.90;;;;;;5055006;28;20610;-49
2022/02/12 07:46:35;;;;;;;13.35;6.07;;;1.90;99.90;;;;;;5055342;28;20261;-48
2022/02/12 07:49:03;;;;;;;13.32;5.45;;;1.90;99.90;;;;;;5054464;28;20211;-49
2022/02/12 07:51:30;;;;;;;10.00;4.20;;;1.90;99.90;;;;;;5054746;28;20660;-49
2022/02/12 07:53:57;;;;;;;18.88;6.60;;;1.90;99.90;;;;;;5054788;28;20195;-48
2022/02/12 07:56:24;;;;;;;10.45;6.15;;;1.90;99.90;;;;;;5054786;28;20215;-48
2022/02/12 07:58:51;;;;;;;13.95;5.55;;;2.00;99.90;;;;;;5054355;28;20286;-47
2022/02/12 08:01:17;;;;;;;17.02;6.00;;;2.00;99.90;;;;;;5054616;28;20203;-49
2022/02/12 08:03:44;;;;;;;15.02;6.07;;;2.00;99.90;;;;;;5054953;28;20572;-49
2022/02/12 08:08:53;;;;;;;11.80;5.82;;;2.10;99.90;;;;;;5053124;28;20219;-48
2022/02/12 08:11:28;;;;;;;14.05;5.30;;;2.10;99.90;;;;;;5054483;28;20220;-50
2022/02/12 08:13:55;;;;;;;13.02;6.13;;;2.10;99.90;;;;;;5054395;28;20203;-47
2022/02/12 08:16:22;;;;;;;11.35;6.50;;;2.10;99.90;;;;;;5053857;28;20207;-50
2022/02/12 08:18:49;;;;;;;10.40;5.78;;;2.20;99.90;;;;;;5053908;28;20258;-50
2022/02/12 08:21:17;;;;;;;16.23;6.38;;;2.20;99.90;;;;;;5054570;28;20675;-49
2022/02/12 08:23:44;;;;;;;8.63;5.65;;;2.20;99.90;;;;;;5054579;28;20200;-49
2022/02/12 08:26:10;;;;;;;13.68;5.70;;;2.30;99.90;;;;;;5054337;28;20261;-49
2022/02/12 08:28:38;;;;;;;9.38;5.30;;;2.20;99.90;;;;;;5053789;28;20236;-48
2022/02/12 08:31:04;;;;;;;12.82;5.85;;;2.40;99.90;;;;;;5054152;28;20264;-49
2022/02/12 08:33:32;;;;;;;12.05;5.78;;;2.40;99.90;;;;;;5054312;28;20565;-50
2022/02/12 08:35:59;;;;;;;11.88;6.07;;;2.40;99.90;;;;;;5053696;28;20200;-48
2022/02/12 08:38:27;;;;;;;10.15;6.10;;;2.40;99.90;;;;;;5053195;28;20254;-51
2022/02/12 08:40:54;;;;;;;15.65;5.80;;;2.50;99.90;;;;;;5053460;28;20306;-48
2022/02/12 08:43:20;;;;;;;16.33;6.53;;;2.50;99.90;;;;;;5053981;28;20612;-48
2022/02/12 08:45:47;;;;;;;11.30;6.10;;;2.50;99.90;;;;;;5053287;28;20199;-48
2022/02/12 08:48:13;;;;;;;13.07;5.93;;;2.60;99.90;;;;;;5053611;28;20692;-47
2022/02/12 08:50:40;;;;;;;11.73;6.50;;;2.60;99.90;;;;;;5052935;28;20576;-48
2022/02/12 08:53:07;;;;;;;14.38;5.70;;;2.60;99.90;;;;;;5053459;28;20203;-51
2022/02/12 08:55:35;;;;;;;9.23;5.93;;;2.70;99.90;;;;;;5053456;28;20192;-47
2022/02/12 08:58:01;;;;;;;16.48;6.20;;;2.70;99.90;;;;;;5053864;28;20204;-48
2022/02/12 09:00:28;;;;;;;17.50;6.03;;;2.70;99.90;;;;;;5053186;28;20239;-49
2022/02/12 09:02:55;;;;;;;12.30;7.05;;;2.80;99.90;;;;;;5053706;28;20451;-47
2022/02/12 09:05:22;;;;;;;16.13;6.85;;;2.80;99.90;;;;;;5053173;28;20203;-48
2022/02/12 09:07:48;;;;;;;14.23;6.15;;;2.80;99.90;;;;;;5053149;28;20646;-48
2022/02/12 09:10:15;;;;;;;7.60;4.97;;;2.90;99.90;;;;;;5052667;28;20212;-48
2022/02/12 09:12:43;;;;;;;15.73;6.30;;;2.90;99.90;;;;;;5053547;28;20258;-49
2022/02/12 09:15:10;;;;;;;15.05;5.25;;;3.00;99.90;;;;;;5052991;28;20613;-49
2022/02/12 09:17:36;;;;;;;10.35;5.78;;;3.00;99.90;;;;;;5053245;28;20303;-49
2022/02/12 09:20:04;;;;;;;10.63;5.38;;;3.00;99.90;;;;;;5052611;28;20235;-50
2022/02/12 09:22:31;;;;;;;17.88;5.68;;;3.10;99.90;;;;;;5053601;28;20298;-49
2022/02/12 09:24:57;;;;;;;18.58;7.10;;;3.10;99.90;;;;;;5052833;28;20214;-49
2022/02/12 09:27:24;;;;;;;11.38;5.90;;;3.20;99.90;;;;;;5052919;28;20200;-49
2022/02/12 09:29:54;;;;;;;14.02;6.47;;;3.20;99.90;;;;;;5052411;28;20299;-48
2022/02/12 09:32:21;;;;;;;9.18;6.15;;;3.30;99.90;;;;;;5052874;28;20203;-48
2022/02/12 09:34:47;;;;;;;10.57;5.57;;;3.30;99.90;;;;;;5052494;28;20196;-48
2022/02/12 09:37:14;;;;;;;15.85;6.30;;;3.30;99.90;;;;;;5052405;28;20556;-49
2022/02/12 09:39:41;;;;;;;12.35;5.88;;;3.40;99.90;;;;;;5052371;28;20216;-49
2022/02/12 09:42:10;;;;;;;17.25;6.30;;;3.40;99.90;;;;;;5052192;28;20204;-48
2022/02/12 09:44:39;;;;;;;10.68;4.53;;;3.50;99.90;;;;;;5052660;28;20705;-48
2022/02/12 09:47:36;;;;;;;14.55;5.57;;;3.50;99.90;;;;;;5052320;28;20536;-49
2022/02/12 09:50:02;;;;;;;11.15;5.28;;;3.60;99.90;;;;;;5052843;28;20683;-48
2022/02/12 09:52:30;;;;;;;12.48;4.90;;;3.60;99.90;;;;;;5053061;28;20397;-50
2022/02/12 09:54:59;;;;;;;11.18;5.00;;;3.70;99.90;;;;;;5052866;28;20573;-49
2022/02/12 09:57:26;;;;;;;13.48;4.75;;;3.70;99.90;;;;;;5052790;28;20199;-48
2022/02/12 09:59:58;;;;;;;17.40;5.63;;;3.80;99.90;;;;;;5051842;28;20250;-48
2022/02/12 10:02:26;;;;;;;7.70;5.05;;;3.80;99.90;;;;;;5051861;28;20706;-48
2022/02/12 10:05:17;;;;;;;14.20;4.38;;;3.80;99.90;;;;;;5052241;28;20668;-48
2022/02/12 10:07:44;;;;;;;9.80;4.53;;;3.90;99.90;;;;;;5052047;28;20322;-47
2022/02/12 10:10:12;;;;;;;11.35;3.90;;;3.90;99.90;;;;;;5051715;28;20722;-50
2022/02/12 10:12:39;;;;;;;14.27;4.80;;;4.00;99.90;;;;;;5052272;28;20196;-50
2022/02/12 10:15:12;;;;;;;13.40;4.95;;;4.00;99.90;;;;;;5052036;28;20196;-48
2022/02/12 10:17:51;;;;;;;10.93;5.07;;;4.10;99.90;;;;;;5052088;28;20284;-49
2022/02/12 10:20:25;;;;;;;13.48;4.47;;;4.10;99.90;;;;;;5051576;28;20255;-49
2022/02/12 10:22:52;;;;;;;15.57;4.57;;;4.20;99.90;;;;;;5051740;28;20202;-48
2022/02/12 10:25:20;;;;;;;15.88;4.22;;;4.20;99.90;;;;;;5051740;28;20200;-49
2022/02/12 10:27:49;;;;;;;14.13;4.75;;;4.30;99.90;;;;;;5051744;28;20200;-48
2022/02/12 10:30:16;;;;;;;14.50;4.60;;;4.30;99.90;;;;;;5052020;28;20230;-49
2022/02/12 10:32:42;;;;;;;13.82;4.75;;;4.40;99.90;;;;;;5051861;28;20210;-48
2022/02/12 10:35:11;;;;;;;8.57;4.20;;;4.40;99.90;;;;;;5051539;28;20192;-50
2022/02/12 10:37:42;;;;;;;10.70;4.25;;;4.50;99.90;;;;;;5051234;28;20283;-49
2022/02/12 10:40:09;;;;;;;12.13;4.25;;;4.50;99.90;;;;;;5051115;28;20212;-49
2022/02/12 10:42:43;;;;;;;7.43;4.03;;;4.60;99.90;;;;;;5051586;28;20568;-49
2022/02/12 10:45:11;;;;;;;11.35;4.18;;;4.60;99.90;;;;;;5051183;28;20216;-49
2022/02/12 10:47:39;;;;;;;15.82;3.92;;;4.70;99.90;;;;;;5051331;28;20253;-48
2022/02/12 10:50:06;;;;;;;9.43;4.45;;;4.70;99.90;;;;;;5050469;28;20212;-48
2022/02/12 10:52:42;;;;;;;11.70;5.65;;;4.70;99.90;;;;;;5051357;28;20669;-49
2022/02/12 10:55:19;;;;;;;8.45;4.65;;;4.80;99.90;;;;;;5051561;28;20203;-49
2022/02/12 10:57:46;;;;;;;11.68;4.10;;;4.80;99.90;;;;;;5051386;28;20196;-48
2022/02/12 11:00:14;;;;;;;13.73;4.13;;;4.90;99.90;;;;;;5050848;28;20681;-49
2022/02/12 11:02:44;;;;;;;7.90;3.63;;;4.90;99.90;;;;;;5051251;28;20191;-50
2022/02/12 11:05:11;;;;;;;6.82;4.20;;;5.00;99.90;;;;;;5051194;28;20238;-49
2022/02/12 11:07:38;;;;;;;13.63;4.00;;;5.00;99.90;;;;;;5051007;28;20707;-49
2022/02/12 11:10:08;;;;;;;11.43;4.10;;;5.00;99.90;;;;;;5050800;28;20211;-49
2022/02/12 11:12:37;;;;;;;6.43;3.45;;;5.10;99.90;;;;;;5050795;28;20426;-49
2022/02/12 11:15:05;;;;;;;6.90;4.00;;;5.20;99.90;;;;;;5051001;28;20197;-48
2022/02/12 11:17:33;;;;;;;11.35;3.70;;;5.20;99.90;;;;;;5050997;28;20561;-49
2022/02/12 11:20:02;;;;;;;8.63;3.80;;;5.20;99.90;;;;;;5050067;28;20244;-50
2022/02/12 11:22:29;;;;;;;9.68;3.83;;;5.30;99.90;;;;;;5050792;28;20231;-49
2022/02/12 11:24:57;;;;;;;7.53;3.78;;;5.20;99.90;;;;;;5029323;28;20224;-48
2022/02/12 11:27:26;;;;;;;7.22;3.22;;;5.30;99.90;;;;;;5031184;28;20197;-49
2022/02/12 11:29:54;;;;;;;10.73;3.60;;;5.40;99.90;;;;;;5031019;28;20228;-50
2022/02/12 11:32:23;;;;;;;8.75;3.55;;;5.50;99.90;;;;;;5030605;28;20912;-50
2022/02/12 11:35:23;;;;;;;10.18;3.40;;;5.50;99.90;;;;;;5030899;28;20666;-50
2022/02/12 11:37:50;;;;;;;8.05;3.55;;;5.60;99.90;;;;;;5027318;28;20741;-51
2022/02/12 11:40:20;;;;;;;13.60;4.30;;;5.60;99.90;;;;;;5030455;28;20217;-50
2022/02/12 11:42:50;;;;;;;8.53;3.67;;;5.70;99.90;;;;;;5029370;28;20673;-50
2022/02/12 11:45:30;;;;;;;9.50;3.37;;;5.70;99.90;;;;;;5038327;28;20930;-50
2022/02/12 11:48:18;;;;;;;11.67;2.90;;;5.80;99.90;;;;;;5050267;28;20444;-51
2022/02/12 11:50:50;;;;;;;10.03;3.00;;;5.90;99.90;;;;;;5049672;28;20478;-50
2022/02/12 11:53:34;;;;;;;11.50;4.13;;;5.90;99.30;;;;;;5050365;28;20405;-50
2022/02/12 11:56:02;;;;;;;11.60;3.27;;;6.00;98.40;;;;;;5050399;28;20465;-50
2022/02/12 11:59:01;;;;;;;13.23;5.53;;;6.10;98.40;;;;;;5049966;28;20402;-51
2022/02/12 12:01:48;;;;;;;8.50;3.93;;;6.20;98.00;;;;;;5049748;28;20462;-50
2022/02/12 12:04:18;;;;;;;7.43;3.67;;;6.00;97.50;;;;;;5049978;28;20769;-50
2022/02/12 12:07:17;;;;;;;18.07;7.20;;;6.40;97.00;;;;;;5049707;28;20433;-51
2022/02/12 12:10:11;;;;;;;6.50;2.60;;;6.50;95.60;;;;;;5050058;28;20459;-50
2022/02/12 12:12:38;;;;;;;12.00;3.23;;;6.60;94.80;;;;;;5050122;28;20439;-50
2022/02/12 12:15:21;;;;;;;5.77;2.83;;;6.60;95.20;;;;;;5050154;28;20406;-50
2022/02/12 12:18:01;;;;;;;11.00;4.50;;;6.60;95.10;;;;;;5050112;28;20442;-51
2022/02/12 12:20:36;;;;;;;9.07;3.93;;;6.60;95.10;;;;;;5049556;28;20607;-50
2022/02/12 12:23:05;;;;;;;10.43;3.80;;;6.50;95.00;;;;;;5050522;28;20422;-51
2022/02/12 12:25:53;;;;;;;5.30;2.70;;;6.60;94.40;;;;;;5053217;28;20430;-51
2022/02/12 12:28:31;;;;;;;4.70;2.80;;;6.60;94.50;;;;;;5053367;28;20825;-51
2022/02/12 12:31:02;;;;;;;10.50;3.13;;;6.60;94.80;;;;;;5054077;28;20426;-52
2022/02/12 12:33:29;;;;;;;5.50;2.53;;;6.60;95.20;;;;;;5053929;28;20418;-50
2022/02/12 12:35:57;;;;;;;5.30;2.43;;;6.50;95.50;;;;;;5053650;28;20415;-50
2022/02/12 12:38:39;;;;;;;4.63;2.00;;;6.50;94.90;;;;;;5053040;28;20436;-50
2022/02/12 12:41:28;;;;;;;9.10;2.97;;;6.50;94.10;;;;;;5053288;28;20484;-51
2022/02/12 12:44:11;;;;;;;8.27;3.07;;;6.50;94.40;;;;;;5053441;28;20528;-50
2022/02/12 12:46:41;;;;;;;12.07;2.97;;;6.50;94.70;;;;;;5053221;28;20514;-51
2022/02/12 12:49:10;;;;;;;14.73;3.30;;;6.60;94.60;;;;;;5052649;28;20547;-51
2022/02/12 12:51:38;;;;;;;7.67;2.47;;;6.60;94.20;;;;;;5053195;28;20860;-51
2022/02/12 12:54:05;;;;;;;5.40;2.37;;;6.60;94.40;;;;;;5052939;28;20407;-51
2022/02/12 12:56:32;;;;;;;5.27;2.13;;;6.70;94.00;;;;;;5053852;28;20437;-51
2022/02/12 12:59:03;;;;;;;7.60;2.20;;;6.70;93.90;;;;;;5053350;28;20439;-51
2022/02/12 13:01:30;;;;;;;10.23;2.20;;;6.70;94.10;;;;;;5053663;28;20463;-51
2022/02/12 13:03:58;;;;;;;6.43;2.17;;;6.70;92.60;;;;;;5053163;28;20403;-51
2022/02/12 13:06:25;;;;;;;12.80;2.10;;;6.50;92.80;;;;;;5052747;28;20469;-51